sensor_id;sensor_type;location;lat;lon;timestamp;temperature;humidity
8664;DHT22;4369;47.842;13.096;2023-04-01T00:00:02;8.40;99.90
8664;DHT22;4369;47.842;13.096;2023-04-01T00:02:31;8.40;99.90
8664;DHT22;4369;47.842;13.096;2023-04-01T00:04:58;8.40;99.90
8664;DHT22;4369;47.842;13.096;2023-04-01T00:07:25;8.40;99.90
8664;DHT22;4369;47.842;13.096;2023-04-01T00:09:52;8.40;99.90
8664;DHT22;4369;47.842;13.096;2023-04-01T00:12:18;8.30;99.90
8664;DHT22;4369;47.842;13.096;2023-04-01T00:14:45;8.30;99.90
8664;DHT22;4369;47.842;13.096;2023-04-01T00:17:12;8.30;99.90
8664;DHT22;4369;47.842;13.096;2023-04-01T00:19:40;8.40;99.90
8664;DHT22;4369;47.842;13.096;2023-04-01T00:22:07;8.40;99.90
8664;DHT22;4369;47.842;13.096;2023-04-01T00:24:37;8.40;99.90
8664;DHT22;4369;47.842;13.096;2023-04-01T00:27:04;8.40;99.90
8664;DHT22;4369;47.842;13.096;2023-04-01T00:29:31;8.50;99.90
8664;DHT22;4369;47.842;13.096;2023-04-01T00:31:58;8.50;99.90
8664;DHT22;4369;47.842;13.096;2023-04-01T00:34:25;8.50;99.90
8664;DHT22;4369;47.842;13.096;2023-04-01T00:36:53;8.50;99.90
8664;DHT22;4369;47.842;13.096;2023-04-01T00:39:20;8.60;99.90
8664;DHT22;4369;47.842;13.096;2023-04-01T00:41:47;8.60;99.90
8664;DHT22;4369;47.842;13.096;2023-04-01T00:44:17;8.60;99.90
8664;DHT22;4369;47.842;13.096;2023-04-01T00:46:44;8.60;99.90
8664;DHT22;4369;47.842;13.096;2023-04-01T00:49:12;8.60;99.90
8664;DHT22;4369;47.842;13.096;2023-04-01T00:51:41;8.70;99.90
8664;DHT22;4369;47.842;13.096;2023-04-01T00:54:11;8.70;99.90
8664;DHT22;4369;47.842;13.096;2023-04-01T00:56:41;8.70;99.90
8664;DHT22;4369;47.842;13.096;2023-04-01T00:59:13;8.80;99.90
8664;DHT22;4369;47.842;13.096;2023-04-01T01:01:40;8.70;99.90
8664;DHT22;4369;47.842;13.096;2023-04-01T01:04:22;8.70;99.90
8664;DHT22;4369;47.842;13.096;2023-04-01T01:06:55;8.70;99.90
8664;DHT22;4369;47.842;13.096;2023-04-01T01:09:36;8.70;99.90
8664;DHT22;4369;47.842;13.096;2023-04-01T01:12:10;8.60;99.90
8664;DHT22;4369;47.842;13.096;2023-04-01T01:14:53;8.50;99.90
8664;DHT22;4369;47.842;13.096;2023-04-01T01:17:29;8.40;99.90
8664;DHT22;4369;47.842;13.096;2023-04-01T01:23:29;8.30;99.90
8664;DHT22;4369;47.842;13.096;2023-04-01T01:26:09;8.30;99.90
8664;DHT22;4369;47.842;13.096;2023-04-01T01:28:50;8.30;99.90
8664;DHT22;4369;47.842;13.096;2023-04-01T01:31:28;8.30;99.90
8664;DHT22;4369;47.842;13.096;2023-04-01T01:34:06;8.30;99.90
8664;DHT22;4369;47.842;13.096;2023-04-01T01:36:41;8.30;99.90
8664;DHT22;4369;47.842;13.096;2023-04-01T01:39:12;8.30;99.90
8664;DHT22;4369;47.842;13.096;2023-04-01T01:41:41;8.30;99.90
8664;DHT22;4369;47.842;13.096;2023-04-01T01:44:11;8.30;99.90
8664;DHT22;4369;47.842;13.096;2023-04-01T01:46:41;8.30;99.90
8664;DHT22;4369;47.842;13.096;2023-04-01T01:49:10;8.30;99.90
8664;DHT22;4369;47.842;13.096;2023-04-01T01:51:40;8.30;99.90
8664;DHT22;4369;47.842;13.096;2023-04-01T01:54:12;8.30;99.90
8664;DHT22;4369;47.842;13.096;2023-04-01T01:56:39;8.30;99.90
8664;DHT22;4369;47.842;13.096;2023-04-01T01:59:09;8.30;99.90
8664;DHT22;4369;47.842;13.096;2023-04-01T02:01:41;8.30;99.90
8664;DHT22;4369;47.842;13.096;2023-04-01T02:04:10;8.20;99.90
8664;DHT22;4369;47.842;13.096;2023-04-01T02:06:42;8.20;99.90
8664;DHT22;4369;47.842;13.096;2023-04-01T02:09:10;8.20;99.90
8664;DHT22;4369;47.842;13.096;2023-04-01T02:11:41;8.10;99.90
8664;DHT22;4369;47.842;13.096;2023-04-01T02:14:13;8.00;99.90
8664;DHT22;4369;47.842;13.096;2023-04-01T02:16:45;8.10;99.90
8664;DHT22;4369;47.842;13.096;2023-04-01T02:19:16;7.90;99.90
8664;DHT22;4369;47.842;13.096;2023-04-01T02:21:49;7.90;99.90
8664;DHT22;4369;47.842;13.096;2023-04-01T02:24:18;7.90;99.90
8664;DHT22;4369;47.842;13.096;2023-04-01T02:26:47;7.90;99.90
8664;DHT22;4369;47.842;13.096;2023-04-01T02:29:14;7.90;99.90
8664;DHT22;4369;47.842;13.096;2023-04-01T02:31:42;7.80;99.90
8664;DHT22;4369;47.842;13.096;2023-04-01T02:34:09;7.90;99.90
8664;DHT22;4369;47.842;13.096;2023-04-01T02:36:36;7.80;99.90
8664;DHT22;4369;47.842;13.096;2023-04-01T02:39:06;7.80;99.90
8664;DHT22;4369;47.842;13.096;2023-04-01T02:41:38;7.80;99.90
8664;DHT22;4369;47.842;13.096;2023-04-01T02:44:06;7.80;99.90
8664;DHT22;4369;47.842;13.096;2023-04-01T02:46:33;7.90;99.90
8664;DHT22;4369;47.842;13.096;2023-04-01T02:49:00;7.90;99.90
8664;DHT22;4369;47.842;13.096;2023-04-01T02:51:27;7.90;99.90
8664;DHT22;4369;47.842;13.096;2023-04-01T02:53:54;7.80;99.90
8664;DHT22;4369;47.842;13.096;2023-04-01T02:56:22;7.80;99.90
8664;DHT22;4369;47.842;13.096;2023-04-01T02:58:49;7.80;99.90
8664;DHT22;4369;47.842;13.096;2023-04-01T03:01:16;7.80;99.90
8664;DHT22;4369;47.842;13.096;2023-04-01T03:03:43;7.90;99.90
8664;DHT22;4369;47.842;13.096;2023-04-01T03:06:12;7.90;99.90
8664;DHT22;4369;47.842;13.096;2023-04-01T03:08:39;7.90;99.90
8664;DHT22;4369;47.842;13.096;2023-04-01T03:11:06;7.90;99.90
8664;DHT22;4369;47.842;13.096;2023-04-01T03:13:34;7.90;99.90
8664;DHT22;4369;47.842;13.096;2023-04-01T03:16:01;7.90;99.90
8664;DHT22;4369;47.842;13.096;2023-04-01T03:18:28;7.90;99.90
8664;DHT22;4369;47.842;13.096;2023-04-01T03:20:55;7.90;99.90
8664;DHT22;4369;47.842;13.096;2023-04-01T03:23:22;7.80;99.90
8664;DHT22;4369;47.842;13.096;2023-04-01T03:25:50;7.80;99.90
8664;DHT22;4369;47.842;13.096;2023-04-01T03:28:17;7.80;99.90
8664;DHT22;4369;47.842;13.096;2023-04-01T03:30:45;7.80;99.90
8664;DHT22;4369;47.842;13.096;2023-04-01T03:33:12;7.70;99.90
8664;DHT22;4369;47.842;13.096;2023-04-01T03:35:39;7.70;99.90
8664;DHT22;4369;47.842;13.096;2023-04-01T03:38:06;7.70;99.90
8664;DHT22;4369;47.842;13.096;2023-04-01T03:40:33;7.70;99.90
8664;DHT22;4369;47.842;13.096;2023-04-01T03:43:02;7.70;99.90
8664;DHT22;4369;47.842;13.096;2023-04-01T03:45:33;7.60;99.90
8664;DHT22;4369;47.842;13.096;2023-04-01T03:48:01;7.60;99.90
8664;DHT22;4369;47.842;13.096;2023-04-01T03:50:28;7.70;99.90
8664;DHT22;4369;47.842;13.096;2023-04-01T03:52:55;7.70;99.90
8664;DHT22;4369;47.842;13.096;2023-04-01T03:55:22;7.60;99.90
8664;DHT22;4369;47.842;13.096;2023-04-01T03:57:49;7.60;99.90
8664;DHT22;4369;47.842;13.096;2023-04-01T04:00:16;7.60;99.90
8664;DHT22;4369;47.842;13.096;2023-04-01T04:02:43;7.60;99.90
8664;DHT22;4369;47.842;13.096;2023-04-01T04:05:11;7.50;99.90
8664;DHT22;4369;47.842;13.096;2023-04-01T04:07:38;7.50;99.90
8664;DHT22;4369;47.842;13.096;2023-04-01T04:10:06;7.60;99.90
8664;DHT22;4369;47.842;13.096;2023-04-01T04:12:33;7.60;99.90
8664;DHT22;4369;47.842;13.096;2023-04-01T04:15:00;7.60;99.90
8664;DHT22;4369;47.842;13.096;2023-04-01T04:17:27;7.50;99.90
8664;DHT22;4369;47.842;13.096;2023-04-01T04:19:54;7.50;99.90
8664;DHT22;4369;47.842;13.096;2023-04-01T04:22:22;7.50;99.90
8664;DHT22;4369;47.842;13.096;2023-04-01T04:24:49;7.50;99.90
8664;DHT22;4369;47.842;13.096;2023-04-01T04:27:16;7.40;99.90
8664;DHT22;4369;47.842;13.096;2023-04-01T04:29:43;7.40;99.90
8664;DHT22;4369;47.842;13.096;2023-04-01T04:32:09;7.40;99.90
8664;DHT22;4369;47.842;13.096;2023-04-01T04:34:36;7.50;99.90
8664;DHT22;4369;47.842;13.096;2023-04-01T04:37:03;7.50;99.90
8664;DHT22;4369;47.842;13.096;2023-04-01T04:39:32;7.40;99.90
8664;DHT22;4369;47.842;13.096;2023-04-01T04:41:58;7.50;99.90
8664;DHT22;4369;47.842;13.096;2023-04-01T04:44:26;7.50;99.90
8664;DHT22;4369;47.842;13.096;2023-04-01T04:46:53;7.50;99.90
8664;DHT22;4369;47.842;13.096;2023-04-01T04:49:20;7.50;99.90
8664;DHT22;4369;47.842;13.096;2023-04-01T04:51:47;7.50;99.90
8664;DHT22;4369;47.842;13.096;2023-04-01T04:54:15;7.50;99.90
8664;DHT22;4369;47.842;13.096;2023-04-01T04:56:43;7.50;99.90
8664;DHT22;4369;47.842;13.096;2023-04-01T04:59:10;7.50;99.90
8664;DHT22;4369;47.842;13.096;2023-04-01T05:01:38;7.60;99.90
8664;DHT22;4369;47.842;13.096;2023-04-01T05:04:05;7.50;99.90
8664;DHT22;4369;47.842;13.096;2023-04-01T05:06:32;7.50;99.90
8664;DHT22;4369;47.842;13.096;2023-04-01T05:08:59;7.50;99.90
8664;DHT22;4369;47.842;13.096;2023-04-01T05:11:26;7.50;99.90
8664;DHT22;4369;47.842;13.096;2023-04-01T05:13:54;7.50;99.90
8664;DHT22;4369;47.842;13.096;2023-04-01T05:16:21;7.50;99.90
8664;DHT22;4369;47.842;13.096;2023-04-01T05:18:47;7.50;99.90
8664;DHT22;4369;47.842;13.096;2023-04-01T05:21:15;7.50;99.90
8664;DHT22;4369;47.842;13.096;2023-04-01T05:23:42;7.60;99.90
8664;DHT22;4369;47.842;13.096;2023-04-01T05:26:11;7.60;99.90
8664;DHT22;4369;47.842;13.096;2023-04-01T05:28:39;7.60;99.90
8664;DHT22;4369;47.842;13.096;2023-04-01T05:31:08;7.60;99.90
8664;DHT22;4369;47.842;13.096;2023-04-01T05:33:35;7.60;99.90
8664;DHT22;4369;47.842;13.096;2023-04-01T05:36:09;7.60;99.90
8664;DHT22;4369;47.842;13.096;2023-04-01T05:38:36;7.70;99.90
8664;DHT22;4369;47.842;13.096;2023-04-01T05:41:03;7.80;99.90
8664;DHT22;4369;47.842;13.096;2023-04-01T05:43:30;7.80;99.90
8664;DHT22;4369;47.842;13.096;2023-04-01T05:45:57;7.80;99.90
8664;DHT22;4369;47.842;13.096;2023-04-01T05:48:25;7.80;99.90
8664;DHT22;4369;47.842;13.096;2023-04-01T05:50:52;7.80;99.90
8664;DHT22;4369;47.842;13.096;2023-04-01T05:53:19;7.80;99.90
8664;DHT22;4369;47.842;13.096;2023-04-01T05:55:46;7.90;99.90
8664;DHT22;4369;47.842;13.096;2023-04-01T05:58:13;7.90;99.90
8664;DHT22;4369;47.842;13.096;2023-04-01T06:00:40;8.00;99.90
8664;DHT22;4369;47.842;13.096;2023-04-01T06:03:07;8.00;99.90
8664;DHT22;4369;47.842;13.096;2023-04-01T06:05:40;8.00;99.90
8664;DHT22;4369;47.842;13.096;2023-04-01T06:08:10;8.10;99.90
8664;DHT22;4369;47.842;13.096;2023-04-01T06:10:55;8.10;99.90
8664;DHT22;4369;47.842;13.096;2023-04-01T06:13:32;8.10;99.90
8664;DHT22;4369;47.842;13.096;2023-04-01T06:16:10;8.20;99.90
8664;DHT22;4369;47.842;13.096;2023-04-01T06:18:50;8.20;99.90
8664;DHT22;4369;47.842;13.096;2023-04-01T06:21:43;8.30;99.90
8664;DHT22;4369;47.842;13.096;2023-04-01T06:24:38;8.40;99.90
8664;DHT22;4369;47.842;13.096;2023-04-01T06:27:16;8.50;99.90
8664;DHT22;4369;47.842;13.096;2023-04-01T06:29:57;8.50;99.90
8664;DHT22;4369;47.842;13.096;2023-04-01T06:32:40;8.60;99.90
8664;DHT22;4369;47.842;13.096;2023-04-01T06:35:19;8.70;99.90
8664;DHT22;4369;47.842;13.096;2023-04-01T06:41:07;8.60;99.90
8664;DHT22;4369;47.842;13.096;2023-04-01T06:43:43;8.70;99.90
8664;DHT22;4369;47.842;13.096;2023-04-01T06:46:19;8.80;99.90
8664;DHT22;4369;47.842;13.096;2023-04-01T06:49:05;8.90;99.90
8664;DHT22;4369;47.842;13.096;2023-04-01T06:51:39;9.00;99.90
8664;DHT22;4369;47.842;13.096;2023-04-01T06:54:12;9.00;99.90
8664;DHT22;4369;47.842;13.096;2023-04-01T06:56:44;9.00;99.90
8664;DHT22;4369;47.842;13.096;2023-04-01T06:59:15;9.10;99.90
8664;DHT22;4369;47.842;13.096;2023-04-01T07:01:46;9.10;99.90
8664;DHT22;4369;47.842;13.096;2023-04-01T07:04:18;9.20;99.90
8664;DHT22;4369;47.842;13.096;2023-04-01T07:06:50;9.20;99.90
8664;DHT22;4369;47.842;13.096;2023-04-01T07:09:20;9.30;99.90
8664;DHT22;4369;47.842;13.096;2023-04-01T07:11:50;9.40;99.90
8664;DHT22;4369;47.842;13.096;2023-04-01T07:14:24;9.50;99.90
8664;DHT22;4369;47.842;13.096;2023-04-01T07:16:56;9.50;99.90
8664;DHT22;4369;47.842;13.096;2023-04-01T07:19:30;9.60;99.90
8664;DHT22;4369;47.842;13.096;2023-04-01T07:22:01;9.60;99.90
8664;DHT22;4369;47.842;13.096;2023-04-01T07:24:33;9.70;99.90
8664;DHT22;4369;47.842;13.096;2023-04-01T07:27:03;9.80;99.90
8664;DHT22;4369;47.842;13.096;2023-04-01T07:29:32;9.90;99.90
8664;DHT22;4369;47.842;13.096;2023-04-01T07:32:26;9.90;99.90
8664;DHT22;4369;47.842;13.096;2023-04-01T07:35:07;10.00;99.90
8664;DHT22;4369;47.842;13.096;2023-04-01T07:37:43;10.10;99.90
8664;DHT22;4369;47.842;13.096;2023-04-01T07:40:21;10.20;99.90
8664;DHT22;4369;47.842;13.096;2023-04-01T07:43:07;10.20;99.90
8664;DHT22;4369;47.842;13.096;2023-04-01T07:45:38;10.10;99.90
8664;DHT22;4369;47.842;13.096;2023-04-01T07:48:18;10.10;99.90
8664;DHT22;4369;47.842;13.096;2023-04-01T07:50:52;10.30;99.90
8664;DHT22;4369;47.842;13.096;2023-04-01T07:53:25;10.30;99.90
8664;DHT22;4369;47.842;13.096;2023-04-01T07:56:05;10.30;99.90
8664;DHT22;4369;47.842;13.096;2023-04-01T07:58:40;10.50;99.90
8664;DHT22;4369;47.842;13.096;2023-04-01T08:01:17;10.50;99.90
8664;DHT22;4369;47.842;13.096;2023-04-01T08:04:10;10.50;99.90
8664;DHT22;4369;47.842;13.096;2023-04-01T08:06:44;10.60;99.90
8664;DHT22;4369;47.842;13.096;2023-04-01T08:09:17;10.60;99.90
8664;DHT22;4369;47.842;13.096;2023-04-01T08:12:02;10.60;99.90
8664;DHT22;4369;47.842;13.096;2023-04-01T08:14:37;10.80;99.90
8664;DHT22;4369;47.842;13.096;2023-04-01T08:17:12;10.80;99.90
8664;DHT22;4369;47.842;13.096;2023-04-01T08:19:55;10.70;99.90
8664;DHT22;4369;47.842;13.096;2023-04-01T08:22:27;10.80;99.90
8664;DHT22;4369;47.842;13.096;2023-04-01T08:24:56;10.90;99.90
8664;DHT22;4369;47.842;13.096;2023-04-01T08:27:34;11.10;99.90
8664;DHT22;4369;47.842;13.096;2023-04-01T08:30:14;11.10;99.90
8664;DHT22;4369;47.842;13.096;2023-04-01T08:32:47;11.10;99.90
8664;DHT22;4369;47.842;13.096;2023-04-01T08:35:20;10.90;99.90
8664;DHT22;4369;47.842;13.096;2023-04-01T08:37:52;11.00;99.90
8664;DHT22;4369;47.842;13.096;2023-04-01T08:40:37;11.30;99.90
8664;DHT22;4369;47.842;13.096;2023-04-01T08:43:09;11.30;99.90
8664;DHT22;4369;47.842;13.096;2023-04-01T08:45:56;11.50;99.90
8664;DHT22;4369;47.842;13.096;2023-04-01T08:48:48;11.70;99.90
8664;DHT22;4369;47.842;13.096;2023-04-01T08:52:01;11.70;99.90
8664;DHT22;4369;47.842;13.096;2023-04-01T08:55:04;11.70;99.90
8664;DHT22;4369;47.842;13.096;2023-04-01T08:57:48;11.60;99.90
8664;DHT22;4369;47.842;13.096;2023-04-01T09:00:27;11.60;99.90
8664;DHT22;4369;47.842;13.096;2023-04-01T09:03:19;11.60;99.90
8664;DHT22;4369;47.842;13.096;2023-04-01T09:09:00;12.00;99.90
8664;DHT22;4369;47.842;13.096;2023-04-01T09:11:40;12.10;99.90
8664;DHT22;4369;47.842;13.096;2023-04-01T09:14:40;12.20;99.90
8664;DHT22;4369;47.842;13.096;2023-04-01T09:20:44;11.90;99.90
8664;DHT22;4369;47.842;13.096;2023-04-01T09:23:33;11.90;99.90
8664;DHT22;4369;47.842;13.096;2023-04-01T09:26:26;12.00;99.90
8664;DHT22;4369;47.842;13.096;2023-04-01T09:29:05;12.00;99.90
8664;DHT22;4369;47.842;13.096;2023-04-01T09:31:58;12.40;99.90
8664;DHT22;4369;47.842;13.096;2023-04-01T09:37:39;12.80;99.90
8664;DHT22;4369;47.842;13.096;2023-04-01T09:40:15;12.80;99.90
8664;DHT22;4369;47.842;13.096;2023-04-01T09:42:45;12.80;99.90
8664;DHT22;4369;47.842;13.096;2023-04-01T09:45:33;12.80;99.90
8664;DHT22;4369;47.842;13.096;2023-04-01T09:48:13;12.60;99.90
8664;DHT22;4369;47.842;13.096;2023-04-01T09:50:51;12.20;99.90
8664;DHT22;4369;47.842;13.096;2023-04-01T09:53:33;12.00;99.90
8664;DHT22;4369;47.842;13.096;2023-04-01T09:59:40;12.40;99.90
8664;DHT22;4369;47.842;13.096;2023-04-01T10:02:59;12.90;99.90
8664;DHT22;4369;47.842;13.096;2023-04-01T10:05:50;13.10;99.90
8664;DHT22;4369;47.842;13.096;2023-04-01T10:08:58;13.40;99.90
8664;DHT22;4369;47.842;13.096;2023-04-01T10:21:17;14.40;95.70
8664;DHT22;4369;47.842;13.096;2023-04-01T10:24:08;14.10;98.70
8664;DHT22;4369;47.842;13.096;2023-04-01T10:39:22;13.90;97.60
8664;DHT22;4369;47.842;13.096;2023-04-01T10:48:19;14.00;94.90
8664;DHT22;4369;47.842;13.096;2023-04-01T10:51:09;14.20;95.30
8664;DHT22;4369;47.842;13.096;2023-04-01T10:54:02;14.00;93.40
8664;DHT22;4369;47.842;13.096;2023-04-01T10:56:39;13.90;93.20
8664;DHT22;4369;47.842;13.096;2023-04-01T11:02:45;13.90;92.60
8664;DHT22;4369;47.842;13.096;2023-04-01T11:15:08;14.70;91.30
8664;DHT22;4369;47.842;13.096;2023-04-01T11:18:03;15.10;90.60
8664;DHT22;4369;47.842;13.096;2023-04-01T11:27:02;16.00;82.80
8664;DHT22;4369;47.842;13.096;2023-04-01T11:32:54;16.20;80.70
8664;DHT22;4369;47.842;13.096;2023-04-01T11:35:55;15.60;80.30
8664;DHT22;4369;47.842;13.096;2023-04-01T11:38:33;15.40;84.40
8664;DHT22;4369;47.842;13.096;2023-04-01T11:41:12;14.90;85.80
8664;DHT22;4369;47.842;13.096;2023-04-01T11:43:48;15.00;86.10
8664;DHT22;4369;47.842;13.096;2023-04-01T11:46:25;14.90;85.40
8664;DHT22;4369;47.842;13.096;2023-04-01T11:49:01;14.70;90.60
8664;DHT22;4369;47.842;13.096;2023-04-01T11:51:47;14.50;97.60
8664;DHT22;4369;47.842;13.096;2023-04-01T11:54:32;14.60;99.90
8664;DHT22;4369;47.842;13.096;2023-04-01T11:57:18;14.50;99.90
8664;DHT22;4369;47.842;13.096;2023-04-01T12:00:10;14.80;99.20
8664;DHT22;4369;47.842;13.096;2023-04-01T12:02:50;15.10;96.50
8664;DHT22;4369;47.842;13.096;2023-04-01T12:05:36;15.40;96.70
8664;DHT22;4369;47.842;13.096;2023-04-01T12:08:15;15.50;94.50
8664;DHT22;4369;47.842;13.096;2023-04-01T12:10:50;15.20;92.40
8664;DHT22;4369;47.842;13.096;2023-04-01T12:13:34;15.10;91.80
8664;DHT22;4369;47.842;13.096;2023-04-01T12:16:15;14.90;91.20
8664;DHT22;4369;47.842;13.096;2023-04-01T12:18:51;14.70;92.70
8664;DHT22;4369;47.842;13.096;2023-04-01T12:21:25;14.40;96.70
8664;DHT22;4369;47.842;13.096;2023-04-01T12:24:25;14.20;97.50
8664;DHT22;4369;47.842;13.096;2023-04-01T12:27:13;14.10;95.70
8664;DHT22;4369;47.842;13.096;2023-04-01T12:30:05;14.00;96.90
8664;DHT22;4369;47.842;13.096;2023-04-01T12:32:40;14.00;96.00
8664;DHT22;4369;47.842;13.096;2023-04-01T12:35:23;13.80;94.40
8664;DHT22;4369;47.842;13.096;2023-04-01T12:38:02;13.70;91.90
8664;DHT22;4369;47.842;13.096;2023-04-01T12:40:48;13.50;93.00
8664;DHT22;4369;47.842;13.096;2023-04-01T12:43:34;13.40;91.30
8664;DHT22;4369;47.842;13.096;2023-04-01T12:46:16;13.30;91.10
8664;DHT22;4369;47.842;13.096;2023-04-01T12:49:21;13.30;89.80
8664;DHT22;4369;47.842;13.096;2023-04-01T12:52:04;13.10;86.30
8664;DHT22;4369;47.842;13.096;2023-04-01T12:55:00;13.10;91.10
8664;DHT22;4369;47.842;13.096;2023-04-01T12:57:48;13.00;93.70
8664;DHT22;4369;47.842;13.096;2023-04-01T13:00:35;12.80;92.90
8664;DHT22;4369;47.842;13.096;2023-04-01T13:03:20;12.90;94.10
8664;DHT22;4369;47.842;13.096;2023-04-01T13:09:02;12.90;92.80
8664;DHT22;4369;47.842;13.096;2023-04-01T13:11:39;13.00;94.00
8664;DHT22;4369;47.842;13.096;2023-04-01T13:14:29;13.10;92.50
8664;DHT22;4369;47.842;13.096;2023-04-01T13:17:03;13.00;93.40
8664;DHT22;4369;47.842;13.096;2023-04-01T13:19:37;13.00;95.50
8664;DHT22;4369;47.842;13.096;2023-04-01T13:22:10;13.00;96.30
8664;DHT22;4369;47.842;13.096;2023-04-01T13:24:48;13.10;94.00
8664;DHT22;4369;47.842;13.096;2023-04-01T13:27:22;13.00;93.20
8664;DHT22;4369;47.842;13.096;2023-04-01T13:30:07;12.80;91.00
8664;DHT22;4369;47.842;13.096;2023-04-01T13:32:44;12.60;91.70
8664;DHT22;4369;47.842;13.096;2023-04-01T13:35:23;12.40;92.00
8664;DHT22;4369;47.842;13.096;2023-04-01T13:38:02;12.20;94.60
8664;DHT22;4369;47.842;13.096;2023-04-01T13:40:44;11.90;96.00
8664;DHT22;4369;47.842;13.096;2023-04-01T13:43:18;11.80;97.40
8664;DHT22;4369;47.842;13.096;2023-04-01T13:46:08;11.80;99.90
8664;DHT22;4369;47.842;13.096;2023-04-01T13:49:08;11.70;99.90
8664;DHT22;4369;47.842;13.096;2023-04-01T13:52:06;11.50;99.30
8664;DHT22;4369;47.842;13.096;2023-04-01T13:54:59;11.40;98.00
8664;DHT22;4369;47.842;13.096;2023-04-01T13:57:52;11.30;99.90
8664;DHT22;4369;47.842;13.096;2023-04-01T14:00:38;11.30;99.90
8664;DHT22;4369;47.842;13.096;2023-04-01T14:03:27;11.40;99.90
8664;DHT22;4369;47.842;13.096;2023-04-01T14:06:05;11.40;99.30
8664;DHT22;4369;47.842;13.096;2023-04-01T14:08:44;11.60;99.90
8664;DHT22;4369;47.842;13.096;2023-04-01T14:11:19;11.80;98.70
8664;DHT22;4369;47.842;13.096;2023-04-01T14:13:58;11.70;97.10
8664;DHT22;4369;47.842;13.096;2023-04-01T14:19:38;11.50;98.50
8664;DHT22;4369;47.842;13.096;2023-04-01T14:22:13;11.50;99.90
8664;DHT22;4369;47.842;13.096;2023-04-01T14:24:57;11.40;99.50
8664;DHT22;4369;47.842;13.096;2023-04-01T14:27:45;11.30;99.90
8664;DHT22;4369;47.842;13.096;2023-04-01T14:30:35;11.30;99.90
8664;DHT22;4369;47.842;13.096;2023-04-01T14:33:18;11.30;99.90
8664;DHT22;4369;47.842;13.096;2023-04-01T14:36:00;11.30;99.90
8664;DHT22;4369;47.842;13.096;2023-04-01T14:38:37;11.30;99.90
8664;DHT22;4369;47.842;13.096;2023-04-01T14:41:24;11.20;99.90
8664;DHT22;4369;47.842;13.096;2023-04-01T14:44:30;11.10;99.90
8664;DHT22;4369;47.842;13.096;2023-04-01T14:47:22;11.10;99.90
8664;DHT22;4369;47.842;13.096;2023-04-01T14:49:53;11.00;99.90
8664;DHT22;4369;47.842;13.096;2023-04-01T14:52:26;10.90;99.90
8664;DHT22;4369;47.842;13.096;2023-04-01T14:54:54;10.90;99.90
8664;DHT22;4369;47.842;13.096;2023-04-01T14:57:24;10.90;99.90
8664;DHT22;4369;47.842;13.096;2023-04-01T14:59:59;10.80;99.90
8664;DHT22;4369;47.842;13.096;2023-04-01T15:02:42;10.80;99.90
8664;DHT22;4369;47.842;13.096;2023-04-01T15:05:16;10.80;99.90
8664;DHT22;4369;47.842;13.096;2023-04-01T15:08:08;10.80;99.90
8664;DHT22;4369;47.842;13.096;2023-04-01T15:10:53;10.90;99.90
8664;DHT22;4369;47.842;13.096;2023-04-01T15:13:48;11.00;99.90
8664;DHT22;4369;47.842;13.096;2023-04-01T15:16:23;11.10;99.90
8664;DHT22;4369;47.842;13.096;2023-04-01T15:19:02;11.20;99.90
8664;DHT22;4369;47.842;13.096;2023-04-01T15:21:43;11.20;99.90
8664;DHT22;4369;47.842;13.096;2023-04-01T15:24:20;11.20;99.90
8664;DHT22;4369;47.842;13.096;2023-04-01T15:26:57;11.20;99.90
8664;DHT22;4369;47.842;13.096;2023-04-01T15:30:01;11.20;99.90
8664;DHT22;4369;47.842;13.096;2023-04-01T15:32:39;11.00;99.90
8664;DHT22;4369;47.842;13.096;2023-04-01T15:35:21;11.00;99.90
8664;DHT22;4369;47.842;13.096;2023-04-01T15:37:55;10.90;99.90
8664;DHT22;4369;47.842;13.096;2023-04-01T15:40:28;10.80;99.90
8664;DHT22;4369;47.842;13.096;2023-04-01T15:43:18;10.80;99.90
8664;DHT22;4369;47.842;13.096;2023-04-01T15:45:58;10.80;99.90
8664;DHT22;4369;47.842;13.096;2023-04-01T15:48:44;10.70;99.90
8664;DHT22;4369;47.842;13.096;2023-04-01T15:54:23;10.70;99.90
8664;DHT22;4369;47.842;13.096;2023-04-01T15:57:02;10.50;99.90
8664;DHT22;4369;47.842;13.096;2023-04-01T15:59:50;10.30;99.90
8664;DHT22;4369;47.842;13.096;2023-04-01T16:02:24;10.30;99.90
8664;DHT22;4369;47.842;13.096;2023-04-01T16:04:58;10.30;99.90
8664;DHT22;4369;47.842;13.096;2023-04-01T16:07:55;10.20;99.90
8664;DHT22;4369;47.842;13.096;2023-04-01T16:10:38;10.10;99.90
8664;DHT22;4369;47.842;13.096;2023-04-01T16:13:22;10.00;99.90
8664;DHT22;4369;47.842;13.096;2023-04-01T16:16:00;9.90;99.90
8664;DHT22;4369;47.842;13.096;2023-04-01T16:18:44;9.80;99.90
8664;DHT22;4369;47.842;13.096;2023-04-01T16:21:33;9.90;99.90
8664;DHT22;4369;47.842;13.096;2023-04-01T16:24:12;9.90;99.90
8664;DHT22;4369;47.842;13.096;2023-04-01T16:26:47;9.90;99.90
8664;DHT22;4369;47.842;13.096;2023-04-01T16:29:24;9.90;99.90
8664;DHT22;4369;47.842;13.096;2023-04-01T16:31:55;9.90;99.90
8664;DHT22;4369;47.842;13.096;2023-04-01T16:34:30;9.90;99.90
8664;DHT22;4369;47.842;13.096;2023-04-01T16:37:05;9.80;99.90
8664;DHT22;4369;47.842;13.096;2023-04-01T16:39:41;9.60;99.90
8664;DHT22;4369;47.842;13.096;2023-04-01T16:42:26;9.40;99.90
8664;DHT22;4369;47.842;13.096;2023-04-01T16:45:02;9.20;99.90
8664;DHT22;4369;47.842;13.096;2023-04-01T16:47:31;9.00;99.90
8664;DHT22;4369;47.842;13.096;2023-04-01T16:50:06;9.00;99.90
8664;DHT22;4369;47.842;13.096;2023-04-01T16:52:57;8.90;99.90
8664;DHT22;4369;47.842;13.096;2023-04-01T16:55:41;8.90;99.90
8664;DHT22;4369;47.842;13.096;2023-04-01T16:58:10;8.90;99.90
8664;DHT22;4369;47.842;13.096;2023-04-01T17:00:47;8.80;99.90
8664;DHT22;4369;47.842;13.096;2023-04-01T17:03:19;8.90;99.90
8664;DHT22;4369;47.842;13.096;2023-04-01T17:06:00;8.90;99.90
8664;DHT22;4369;47.842;13.096;2023-04-01T17:08:39;9.00;99.90
8664;DHT22;4369;47.842;13.096;2023-04-01T17:11:13;8.90;99.90
8664;DHT22;4369;47.842;13.096;2023-04-01T17:13:47;8.90;99.90
8664;DHT22;4369;47.842;13.096;2023-04-01T17:19:25;8.90;99.90
8664;DHT22;4369;47.842;13.096;2023-04-01T17:22:07;9.00;99.90
8664;DHT22;4369;47.842;13.096;2023-04-01T17:24:52;9.00;99.90
8664;DHT22;4369;47.842;13.096;2023-04-01T17:27:30;9.00;99.90
8664;DHT22;4369;47.842;13.096;2023-04-01T17:30:14;9.10;99.90
8664;DHT22;4369;47.842;13.096;2023-04-01T17:32:54;9.00;99.90
8664;DHT22;4369;47.842;13.096;2023-04-01T17:35:30;9.00;99.90
8664;DHT22;4369;47.842;13.096;2023-04-01T17:38:11;9.00;99.90
8664;DHT22;4369;47.842;13.096;2023-04-01T17:40:48;9.00;99.90
8664;DHT22;4369;47.842;13.096;2023-04-01T17:43:24;9.00;99.90
8664;DHT22;4369;47.842;13.096;2023-04-01T17:45:54;9.10;99.90
8664;DHT22;4369;47.842;13.096;2023-04-01T17:48:29;9.10;99.90
8664;DHT22;4369;47.842;13.096;2023-04-01T17:51:10;9.00;99.90
8664;DHT22;4369;47.842;13.096;2023-04-01T17:53:45;9.00;99.90
8664;DHT22;4369;47.842;13.096;2023-04-01T17:56:21;9.00;99.90
8664;DHT22;4369;47.842;13.096;2023-04-01T17:58:58;9.00;99.90
8664;DHT22;4369;47.842;13.096;2023-04-01T18:01:35;9.00;99.90
8664;DHT22;4369;47.842;13.096;2023-04-01T18:04:24;9.00;99.90
8664;DHT22;4369;47.842;13.096;2023-04-01T18:07:26;9.00;99.90
8664;DHT22;4369;47.842;13.096;2023-04-01T18:10:07;9.10;99.90
8664;DHT22;4369;47.842;13.096;2023-04-01T18:12:48;9.00;99.90
8664;DHT22;4369;47.842;13.096;2023-04-01T18:15:27;9.10;99.90